createdAt,value
2018-03-26T00:00:43.421Z,100889.69
2018-03-26T00:03:46.794Z,100890.30
2018-03-26T00:06:50.217Z,100896.94
2018-03-26T00:09:54.318Z,100902.66
2018-03-26T00:12:57.673Z,100901.66
2018-03-26T00:16:01.025Z,100896.12
2018-03-26T00:19:04.372Z,100888.89
2018-03-26T00:22:07.753Z,100889.97
2018-03-26T00:25:11.873Z,100898.25
2018-03-26T00:28:15.650Z,100888.82
2018-03-26T00:31:19.000Z,100888.38
2018-03-26T00:34:22.401Z,100896.77
2018-03-26T00:37:25.759Z,100897.64
2018-03-26T00:40:29.932Z,100898.05
2018-03-26T00:43:33.277Z,100895.69
2018-03-26T00:46:37.453Z,100894.08
2018-03-26T00:49:40.829Z,100889.70
2018-03-26T00:52:44.222Z,100895.31
2018-03-26T00:55:47.570Z,100892.09
2018-03-26T00:58:51.688Z,100888.38
2018-03-26T01:01:56.769Z,100889.53
2018-03-26T01:05:00.117Z,100900.30
2018-03-26T01:08:03.489Z,100907.61
2018-03-26T01:11:06.841Z,100914.83
2018-03-26T01:14:10.227Z,100917.60
2018-03-26T01:17:13.582Z,100912.45
2018-03-26T01:20:16.933Z,100922.48
2018-03-26T01:23:20.283Z,100924.52
2018-03-26T01:26:23.670Z,100929.28
2018-03-26T01:29:27.027Z,100921.69
2018-03-26T01:32:30.375Z,100930.05
2018-03-26T01:35:33.754Z,100930.64
2018-03-26T01:38:37.221Z,100929.39
2018-03-26T01:41:40.621Z,100925.89
2018-03-26T01:44:43.973Z,100931.15
2018-03-26T01:47:47.327Z,100940.32
2018-03-26T01:50:50.855Z,100939.95
2018-03-26T01:53:54.973Z,100934.25
2018-03-26T01:56:58.319Z,100932.97
2018-03-26T02:00:01.694Z,100932.19
2018-03-26T02:03:05.032Z,100929.46
2018-03-26T02:06:09.359Z,100940.03
2018-03-26T02:09:12.726Z,100937.45
2018-03-26T02:12:16.103Z,100937.00
2018-03-26T02:15:19.473Z,100941.84
2018-03-26T02:18:23.602Z,100947.73
2018-03-26T02:21:26.966Z,100948.54
2018-03-26T02:24:31.831Z,100943.51
2018-03-26T02:27:35.955Z,100950.22
2018-03-26T02:30:39.333Z,100957.66
2018-03-26T02:33:43.472Z,100961.66
2018-03-26T02:36:46.830Z,100967.12
2018-03-26T02:39:50.950Z,100960.97
2018-03-26T02:42:55.810Z,100967.92
2018-03-26T02:45:59.928Z,100970.77
2018-03-26T02:49:04.063Z,100974.23
2018-03-26T02:52:07.420Z,100976.28
2018-03-26T02:55:10.780Z,100984.09
2018-03-26T02:58:14.141Z,100977.00
2018-03-26T03:01:18.273Z,100985.38
2018-03-26T03:04:21.656Z,100974.81
2018-03-26T03:07:25.772Z,100978.72
2018-03-26T03:10:29.891Z,100971.81
2018-03-26T03:13:34.026Z,100974.30
2018-03-26T03:16:37.386Z,100977.14
2018-03-26T03:19:41.500Z,100976.37
2018-03-26T03:22:44.845Z,100982.55
2018-03-26T03:25:48.198Z,100986.63
2018-03-26T03:28:51.552Z,100993.77
2018-03-26T03:31:55.011Z,100988.02
2018-03-26T03:34:59.134Z,100988.97
2018-03-26T03:38:03.241Z,100990.52
2018-03-26T03:41:07.370Z,100989.48
2018-03-26T03:44:11.486Z,100998.21
2018-03-26T03:47:15.617Z,100997.14
2018-03-26T03:50:19.127Z,100998.12
2018-03-26T03:53:22.481Z,100988.75
2018-03-26T03:56:25.830Z,100992.29
2018-03-26T03:59:29.187Z,100988.66
2018-03-26T04:02:33.312Z,100987.94
2018-03-26T04:05:37.448Z,100992.12
2018-03-26T04:08:40.798Z,100995.20
2018-03-26T04:11:44.166Z,100994.91
2018-03-26T04:14:47.645Z,101000.08
2018-03-26T04:17:51.019Z,100995.22
2018-03-26T04:20:55.225Z,100993.77
2018-03-26T04:23:58.582Z,100996.31
2018-03-26T04:27:01.942Z,100999.70
2018-03-26T04:30:06.051Z,100999.36
2018-03-26T04:33:09.411Z,100998.56
2018-03-26T04:36:12.833Z,100994.91
2018-03-26T04:39:16.186Z,101004.80
2018-03-26T04:42:19.529Z,101005.36
2018-03-26T04:45:24.508Z,101008.06
2018-03-26T04:48:27.863Z,101014.25
2018-03-26T04:51:31.226Z,101010.78
2018-03-26T04:54:34.575Z,101009.06
2018-03-26T04:57:37.917Z,101010.91
2018-03-26T05:00:41.298Z,101012.22
2018-03-26T05:03:44.652Z,101014.91
2018-03-26T05:06:48.008Z,101026.87
2018-03-26T05:09:51.359Z,101028.44
2018-03-26T05:12:55.518Z,101031.56
2018-03-26T05:15:59.035Z,101036.54
2018-03-26T05:19:02.376Z,101031.16
2018-03-26T05:22:05.714Z,101036.31
2018-03-26T05:25:09.071Z,101044.22
2018-03-26T05:28:12.421Z,101039.52
2018-03-26T05:31:15.764Z,101047.45
2018-03-26T05:34:19.893Z,101055.11
2018-03-26T05:37:23.255Z,101053.31
2018-03-26T05:40:26.608Z,101066.23
2018-03-26T05:43:29.981Z,101060.87
2018-03-26T05:46:34.114Z,101060.09
2018-03-26T05:49:37.518Z,101068.81
2018-03-26T05:52:41.634Z,101065.27
2018-03-26T05:55:45.872Z,101071.22
2018-03-26T05:58:49.234Z,101072.02
2018-03-26T06:01:53.431Z,101080.77
2018-03-26T06:04:57.004Z,101081.91
2018-03-26T06:08:00.426Z,101081.90
2018-03-26T06:11:03.798Z,101083.18
2018-03-26T06:14:07.155Z,101091.30
2018-03-26T06:17:14.658Z,101090.81
2018-03-26T06:20:18.020Z,101098.28
2018-03-26T06:23:21.471Z,101094.23
2018-03-26T06:26:25.623Z,101106.76
2018-03-26T06:29:28.973Z,101110.90
2018-03-26T06:32:32.303Z,101104.15
2018-03-26T06:35:35.706Z,101104.53
2018-03-26T06:38:39.969Z,101112.01
2018-03-26T06:41:43.547Z,101109.54
2018-03-26T06:44:46.905Z,101106.98
2018-03-26T06:47:51.051Z,101099.61
2018-03-26T06:50:54.400Z,101101.74
2018-03-26T06:53:57.796Z,101100.09
2018-03-26T06:57:01.149Z,101107.80
2018-03-26T07:00:04.482Z,101106.52
2018-03-26T07:03:07.858Z,101101.45
2018-03-26T07:06:11.207Z,101109.17
2018-03-26T07:09:14.564Z,101112.41
2018-03-26T07:12:17.963Z,101119.03
2018-03-26T07:15:21.408Z,101116.62
2018-03-26T07:18:24.747Z,101119.66
2018-03-26T07:21:28.102Z,101121.31
2018-03-26T07:24:32.231Z,101128.92
2018-03-26T07:27:36.367Z,101127.66
2018-03-26T07:30:39.722Z,101128.44
2018-03-26T07:33:43.100Z,101130.75
2018-03-26T07:36:46.499Z,101128.30
2018-03-26T07:39:49.861Z,101129.58
2018-03-26T07:42:53.296Z,101135.80
2018-03-26T07:45:56.676Z,101137.66
2018-03-26T07:49:00.051Z,101136.81
2018-03-26T07:52:04.167Z,101141.54
2018-03-26T07:55:08.295Z,101144.09
2018-03-26T07:58:11.640Z,101142.09
2018-03-26T08:01:14.987Z,101138.63
2018-03-26T08:04:18.306Z,101139.43
2018-03-26T08:07:21.653Z,101139.87
2018-03-26T08:10:24.997Z,101141.23
2018-03-26T08:13:28.345Z,101143.48
2018-03-26T08:16:31.701Z,101138.58
2018-03-26T08:19:35.127Z,101149.71
2018-03-26T08:22:38.477Z,101144.96
2018-03-26T08:25:41.860Z,101148.72
2018-03-26T08:28:45.971Z,101150.97
2018-03-26T08:31:49.327Z,101160.85
2018-03-26T08:34:52.677Z,101156.50
2018-03-26T08:37:56.873Z,101165.86
2018-03-26T08:41:00.998Z,101171.25
2018-03-26T08:44:04.345Z,101170.16
2018-03-26T08:47:07.759Z,101178.23
2018-03-26T08:50:11.239Z,101171.78
2018-03-26T08:53:14.490Z,101176.36
2018-03-26T08:56:17.865Z,101181.36
2018-03-26T08:59:21.234Z,101178.92
2018-03-26T09:02:24.606Z,101180.84
2018-03-26T09:05:28.851Z,101181.31
2018-03-26T09:08:32.192Z,101184.52
2018-03-26T09:11:35.649Z,101183.51
2018-03-26T09:14:39.013Z,101184.83
2018-03-26T09:17:42.417Z,101184.53
2018-03-26T09:20:46.564Z,101189.02
2018-03-26T09:23:49.974Z,101190.94
2018-03-26T09:26:53.539Z,101194.31
2018-03-26T09:29:56.882Z,101200.63
2018-03-26T09:33:00.278Z,101195.18
2018-03-26T09:36:03.654Z,101193.55
2018-03-26T09:39:06.994Z,101196.05
2018-03-26T09:42:10.342Z,101193.56
2018-03-26T09:45:14.471Z,101193.34
2018-03-26T09:48:17.852Z,101191.39
2018-03-26T09:51:22.129Z,101190.76
2018-03-26T09:54:25.477Z,101196.36
2018-03-26T09:57:29.623Z,101198.45
2018-03-26T10:00:38.709Z,101203.19
2018-03-26T10:03:42.072Z,101200.72
2018-03-26T10:06:45.449Z,101201.27
2018-03-26T10:09:48.802Z,101200.00
2018-03-26T10:12:52.233Z,101195.90
2018-03-26T10:15:55.581Z,101203.45
2018-03-26T10:18:58.981Z,101194.98
2018-03-26T10:22:02.448Z,101190.19
2018-03-26T10:25:05.843Z,101194.86
2018-03-26T10:28:09.196Z,101198.80
2018-03-26T10:31:12.647Z,101192.82
2018-03-26T10:34:16.034Z,101196.02
2018-03-26T10:37:19.489Z,101193.91
2018-03-26T10:40:22.823Z,101196.48
2018-03-26T10:43:26.951Z,101191.94
2018-03-26T10:46:30.314Z,101205.60
2018-03-26T10:49:33.684Z,101202.86
2018-03-26T10:52:37.039Z,101206.60
2018-03-26T10:55:41.263Z,101208.40
2018-03-26T10:58:44.620Z,101209.87
2018-03-26T11:01:49.507Z,101207.39
2018-03-26T11:04:52.866Z,101203.48
2018-03-26T11:07:56.205Z,101207.86
2018-03-26T11:10:59.647Z,101198.95
2018-03-26T11:14:03.021Z,101199.23
2018-03-26T11:17:06.428Z,101202.25
2018-03-26T11:20:09.793Z,101195.71
2018-03-26T11:23:13.162Z,101201.36
2018-03-26T11:26:16.502Z,101199.79
2018-03-26T11:29:19.947Z,101199.37
2018-03-26T11:32:23.290Z,101199.84
2018-03-26T11:35:26.656Z,101204.70
2018-03-26T11:38:30.010Z,101208.90
2018-03-26T11:41:33.368Z,101213.22
2018-03-26T11:44:37.503Z,101209.11
2018-03-26T11:47:40.860Z,101208.84
2018-03-26T11:50:44.219Z,101205.73
2018-03-26T11:53:47.580Z,101206.11
2018-03-26T11:56:51.828Z,101205.44
2018-03-26T11:59:55.197Z,101200.61
2018-03-26T12:02:58.577Z,101203.31
2018-03-26T12:06:02.717Z,101204.69
2018-03-26T12:09:06.850Z,101203.80
2018-03-26T12:12:10.257Z,101204.27
2018-03-26T12:15:13.625Z,101206.83
2018-03-26T12:18:17.077Z,101204.03
2018-03-26T12:21:20.447Z,101198.55
2018-03-26T12:24:41.606Z,101205.66
2018-03-26T12:28:02.773Z,101211.11
2018-03-26T12:31:06.907Z,101208.88
2018-03-26T12:34:28.298Z,101210.64
2018-03-26T12:37:31.719Z,101214.52
2018-03-26T12:40:53.894Z,101218.34
2018-03-26T12:43:57.367Z,101226.14
2018-03-26T12:47:00.720Z,101224.45
2018-03-26T12:50:05.595Z,101230.69
2018-03-26T12:53:08.940Z,101224.94
2018-03-26T12:56:12.348Z,101225.43
2018-03-26T12:59:15.709Z,101225.29
2018-03-26T13:02:27.544Z,101226.89
2018-03-26T13:05:30.899Z,101223.41
2018-03-26T13:08:34.271Z,101227.28
2018-03-26T13:11:38.493Z,101231.30
2018-03-26T13:14:42.639Z,101228.62
2018-03-26T13:17:46.031Z,101234.88
2018-03-26T13:20:49.385Z,101230.98
2018-03-26T13:23:52.788Z,101231.50
2018-03-26T13:26:56.169Z,101234.59
2018-03-26T13:29:59.605Z,101237.97
2018-03-26T13:33:02.914Z,101232.92
2018-03-26T13:36:07.045Z,101234.50
2018-03-26T13:39:10.413Z,101238.82
2018-03-26T13:42:13.768Z,101232.14
2018-03-26T13:45:17.121Z,101231.11
2018-03-26T13:48:21.268Z,101226.64
2018-03-26T13:51:24.637Z,101228.89
2018-03-26T13:54:28.759Z,101229.39
2018-03-26T13:57:32.878Z,101231.83
2018-03-26T14:00:37.009Z,101230.98
2018-03-26T14:03:40.362Z,101230.33
2018-03-26T14:06:43.709Z,101236.48
2018-03-26T14:10:04.922Z,101240.78
2018-03-26T14:13:26.181Z,101247.95
2018-03-26T14:16:47.602Z,101245.34
2018-03-26T14:19:50.961Z,101243.18
2018-03-26T14:22:54.470Z,101249.17
2018-03-26T14:25:57.869Z,101253.98
2018-03-26T14:29:01.291Z,101257.41
2018-03-26T14:32:04.674Z,101253.38
2018-03-26T14:39:02.237Z,101261.27
2018-03-26T14:42:06.367Z,101262.91
2018-03-26T14:45:09.771Z,101263.50
2018-03-26T14:48:13.143Z,101262.05
2018-03-26T14:51:17.275Z,101243.56
2018-03-26T14:54:21.410Z,101249.72
2018-03-26T14:57:24.894Z,101247.60
2018-03-26T15:00:29.091Z,101244.74
2018-03-26T15:03:32.626Z,101245.25
2018-03-26T15:06:36.086Z,101250.87
2018-03-26T15:09:39.443Z,101240.25
2018-03-26T15:12:42.847Z,101248.79
2018-03-26T15:15:46.243Z,101234.64
2018-03-26T15:18:49.645Z,101237.81
2018-03-26T15:21:53.021Z,101232.98
2018-03-26T15:24:56.373Z,101229.52
2018-03-26T15:27:59.726Z,101234.83
2018-03-26T15:31:03.129Z,101242.06
2018-03-26T15:34:06.508Z,101240.61
2018-03-26T15:37:10.674Z,101239.58
2018-03-26T15:40:14.053Z,101251.41
2018-03-26T15:43:17.407Z,101250.89
2018-03-26T15:46:21.563Z,101251.73
2018-03-26T15:49:24.938Z,101245.98
2018-03-26T15:52:28.345Z,101243.03
2018-03-26T15:55:31.759Z,101259.83
2018-03-26T15:58:35.157Z,101249.17
2018-03-26T16:01:38.523Z,101247.85
2018-03-26T16:04:42.684Z,101254.30
2018-03-26T16:07:46.151Z,101258.16
2018-03-26T16:10:50.366Z,101266.16
2018-03-26T16:13:54.498Z,101264.98
2018-03-26T16:16:58.101Z,101271.12
2018-03-26T16:20:01.581Z,101270.54
2018-03-26T16:23:05.071Z,101270.66
2018-03-26T16:26:08.432Z,101268.16
2018-03-26T16:29:11.790Z,101265.45
2018-03-26T16:32:15.904Z,101266.55
2018-03-26T16:35:20.058Z,101269.42
2018-03-26T16:38:23.424Z,101271.23
2018-03-26T16:41:48.508Z,101273.60
2018-03-26T16:44:51.898Z,101276.66
2018-03-26T16:47:55.310Z,101272.59
2018-03-26T16:50:58.682Z,101276.03
2018-03-26T16:54:02.099Z,101279.56
2018-03-26T16:57:06.994Z,101275.75
2018-03-26T17:00:10.528Z,101277.39
2018-03-26T17:03:13.889Z,101284.73
2018-03-26T17:06:17.298Z,101288.55
2018-03-26T17:09:20.705Z,101286.67
2018-03-26T17:12:24.073Z,101287.64
2018-03-26T17:15:28.196Z,101292.59
2018-03-26T17:18:31.808Z,101306.72
2018-03-26T17:21:35.189Z,101301.95
2018-03-26T17:24:39.417Z,101303.27
2018-03-26T17:27:43.547Z,101312.03
2018-03-26T17:30:46.919Z,101316.30
2018-03-26T17:33:51.291Z,101318.61
2018-03-26T17:36:54.677Z,101318.44
2018-03-26T17:39:58.052Z,101319.36
2018-03-26T17:43:02.475Z,101317.39
2018-03-26T17:46:06.716Z,101327.11
2018-03-26T17:49:10.118Z,101336.89
2018-03-26T17:52:13.482Z,101337.06
2018-03-26T17:55:17.629Z,101344.94
2018-03-26T17:58:20.995Z,101336.80
2018-03-26T18:01:25.160Z,101341.09
2018-03-26T18:04:28.818Z,101334.06
2018-03-26T18:07:33.116Z,101339.31
2018-03-26T18:10:37.261Z,101340.09
2018-03-26T18:13:41.497Z,101345.84
2018-03-26T18:16:45.084Z,101342.87
2018-03-26T18:19:49.278Z,101348.14
2018-03-26T18:22:52.708Z,101346.67
2018-03-26T18:25:57.075Z,101348.84
2018-03-26T18:29:00.646Z,101352.95
2018-03-26T18:32:04.038Z,101346.64
2018-03-26T18:35:08.217Z,101352.84
2018-03-26T18:38:11.568Z,101356.70
2018-03-26T18:41:14.983Z,101355.97
2018-03-26T18:44:18.391Z,101348.31
2018-03-26T18:47:21.775Z,101358.50
2018-03-26T18:50:25.195Z,101359.47
2018-03-26T18:53:28.570Z,101359.69
2018-03-26T18:56:31.987Z,101364.26
2018-03-26T18:59:35.395Z,101365.98
2018-03-26T19:02:38.788Z,101366.17
2018-03-26T19:05:42.298Z,101365.83
2018-03-26T19:08:45.727Z,101366.00
2018-03-26T19:11:49.865Z,101368.89
2018-03-26T19:14:54.020Z,101364.72
2018-03-26T19:17:57.384Z,101369.98
2018-03-26T19:21:01.581Z,101367.61
2018-03-26T19:24:04.965Z,101373.98
2018-03-26T19:27:08.357Z,101369.71
2018-03-26T19:30:11.843Z,101366.42
2018-03-26T19:33:15.271Z,101368.15
2018-03-26T19:36:18.684Z,101367.05
2018-03-26T19:39:22.183Z,101369.39
2018-03-26T19:42:26.454Z,101366.58
2018-03-26T19:45:29.861Z,101366.88
2018-03-26T19:48:33.355Z,101368.41
2018-03-26T19:51:36.786Z,101369.58
2018-03-26T19:54:40.174Z,101372.86
2018-03-26T19:57:43.644Z,101377.09
2018-03-26T20:00:47.077Z,101378.51
2018-03-26T20:03:51.647Z,101379.39
2018-03-26T20:06:55.076Z,101386.18
2018-03-26T20:09:58.469Z,101386.61
2018-03-26T20:13:02.002Z,101389.98
2018-03-26T20:16:05.478Z,101386.55
2018-03-26T20:19:08.939Z,101387.14
2018-03-26T20:22:13.852Z,101386.41
2018-03-26T20:25:17.222Z,101391.53
2018-03-26T20:28:20.605Z,101381.85
2018-03-26T20:31:24.775Z,101380.67
2018-03-26T20:34:28.345Z,101385.15
2018-03-26T20:37:31.737Z,101380.38
2018-03-26T20:40:35.116Z,101379.09
2018-03-26T20:43:39.252Z,101374.20
2018-03-26T20:46:42.639Z,101386.00
2018-03-26T20:49:46.763Z,101389.66
2018-03-26T20:52:50.128Z,101391.41
2018-03-26T20:55:53.505Z,101384.16
2018-03-26T20:58:56.875Z,101389.66
2018-03-26T21:02:00.242Z,101385.42
2018-03-26T21:05:04.379Z,101383.70
2018-03-26T21:08:07.738Z,101377.89
2018-03-26T21:11:11.862Z,101381.13
2018-03-26T21:14:15.220Z,101384.23
2018-03-26T21:17:18.622Z,101385.66
2018-03-26T21:20:22.112Z,101380.88
2018-03-26T21:23:25.471Z,101379.66
2018-03-26T21:26:29.619Z,101377.38
2018-03-26T21:29:33.015Z,101381.10
2018-03-26T21:32:36.375Z,101381.66
2018-03-26T21:35:39.738Z,101382.31
2018-03-26T21:38:43.118Z,101377.23
2018-03-26T21:41:46.603Z,101376.05
2018-03-26T21:44:50.848Z,101381.75
2018-03-26T21:47:54.222Z,101380.38
2018-03-26T21:50:58.354Z,101384.10
2018-03-26T21:54:01.724Z,101380.38
2018-03-26T21:57:05.856Z,101380.27
2018-03-26T22:00:24.849Z,101385.97
2018-03-26T22:03:28.194Z,101381.14
2018-03-26T22:06:31.537Z,101386.16
2018-03-26T22:09:35.181Z,101387.71
2018-03-26T22:12:39.306Z,101378.34
2018-03-26T22:15:42.888Z,101386.33
2018-03-26T22:18:46.245Z,101376.59
2018-03-26T22:21:49.645Z,101374.48
2018-03-26T22:24:53.009Z,101378.03
2018-03-26T22:27:57.896Z,101376.96
2018-03-26T22:31:01.273Z,101374.33
2018-03-26T22:34:05.395Z,101376.89
2018-03-26T22:37:08.906Z,101378.39
2018-03-26T22:40:12.264Z,101374.88
2018-03-26T22:43:15.623Z,101372.45
2018-03-26T22:46:18.974Z,101377.73
2018-03-26T22:49:23.088Z,101372.84
2018-03-26T22:52:27.194Z,101381.83
2018-03-26T22:55:30.537Z,101372.06
2018-03-26T22:58:33.952Z,101372.73
2018-03-26T23:01:37.302Z,101372.11
2018-03-26T23:04:41.542Z,101377.86
2018-03-26T23:07:44.902Z,101383.57
2018-03-26T23:10:49.069Z,101377.86
2018-03-26T23:13:52.449Z,101381.57
2018-03-26T23:16:56.570Z,101376.84
2018-03-26T23:19:59.990Z,101375.19
2018-03-26T23:23:03.371Z,101368.87
2018-03-26T23:26:06.822Z,101372.56
2018-03-26T23:29:10.179Z,101365.94
2018-03-26T23:32:13.630Z,101369.95
2018-03-26T23:35:17.742Z,101369.67
2018-03-26T23:38:21.130Z,101375.95
2018-03-26T23:41:24.509Z,101371.05
2018-03-26T23:44:27.844Z,101367.81
2018-03-26T23:47:31.203Z,101370.48
2018-03-26T23:50:34.576Z,101367.03
2018-03-26T23:53:38.696Z,101364.98
2018-03-26T23:56:42.811Z,101368.19
2018-03-26T23:59:46.938Z,101361.80
